sensor_id;sensor_type;location;lat;lon;timestamp;P1;durP1;ratioP1;P2;durP2;ratioP2
6723;SDS011;3399;52.530;13.304;2023-06-10T00:01:00;7.47;;;4.97;;
6723;SDS011;3399;52.530;13.304;2023-06-10T00:03:26;10.23;;;4.67;;
6723;SDS011;3399;52.530;13.304;2023-06-10T00:05:51;9.10;;;5.03;;
6723;SDS011;3399;52.530;13.304;2023-06-10T00:08:17;9.07;;;4.83;;
6723;SDS011;3399;52.530;13.304;2023-06-10T00:10:44;5.67;;;3.90;;
6723;SDS011;3399;52.530;13.304;2023-06-10T00:13:10;10.33;;;4.57;;
6723;SDS011;3399;52.530;13.304;2023-06-10T00:15:38;6.63;;;4.47;;
6723;SDS011;3399;52.530;13.304;2023-06-10T00:18:04;7.30;;;4.53;;
6723;SDS011;3399;52.530;13.304;2023-06-10T00:20:30;7.23;;;3.70;;
6723;SDS011;3399;52.530;13.304;2023-06-10T00:22:56;11.83;;;4.87;;
6723;SDS011;3399;52.530;13.304;2023-06-10T00:25:24;9.80;;;4.37;;
6723;SDS011;3399;52.530;13.304;2023-06-10T00:27:50;9.83;;;5.03;;
6723;SDS011;3399;52.530;13.304;2023-06-10T00:30:16;7.83;;;5.13;;
6723;SDS011;3399;52.530;13.304;2023-06-10T00:32:41;10.10;;;5.23;;
6723;SDS011;3399;52.530;13.304;2023-06-10T00:35:07;8.80;;;4.43;;
6723;SDS011;3399;52.530;13.304;2023-06-10T00:37:33;9.07;;;4.53;;
6723;SDS011;3399;52.530;13.304;2023-06-10T00:40:00;10.00;;;5.07;;
6723;SDS011;3399;52.530;13.304;2023-06-10T00:42:27;8.17;;;4.70;;
6723;SDS011;3399;52.530;13.304;2023-06-10T00:44:53;15.00;;;4.97;;
6723;SDS011;3399;52.530;13.304;2023-06-10T00:47:19;9.77;;;5.20;;
6723;SDS011;3399;52.530;13.304;2023-06-10T00:49:46;8.83;;;5.37;;
6723;SDS011;3399;52.530;13.304;2023-06-10T00:52:12;11.10;;;5.07;;
6723;SDS011;3399;52.530;13.304;2023-06-10T00:54:40;6.57;;;4.63;;
6723;SDS011;3399;52.530;13.304;2023-06-10T00:57:06;6.93;;;4.60;;
6723;SDS011;3399;52.530;13.304;2023-06-10T00:59:32;11.60;;;5.60;;
6723;SDS011;3399;52.530;13.304;2023-06-10T01:01:58;8.00;;;4.93;;
6723;SDS011;3399;52.530;13.304;2023-06-10T01:04:24;8.37;;;4.73;;
6723;SDS011;3399;52.530;13.304;2023-06-10T01:07:02;7.20;;;5.00;;
6723;SDS011;3399;52.530;13.304;2023-06-10T01:09:41;12.07;;;4.73;;
6723;SDS011;3399;52.530;13.304;2023-06-10T01:14:51;8.83;;;4.33;;
6723;SDS011;3399;52.530;13.304;2023-06-10T01:17:17;7.53;;;4.40;;
6723;SDS011;3399;52.530;13.304;2023-06-10T01:19:43;7.60;;;4.43;;
6723;SDS011;3399;52.530;13.304;2023-06-10T01:22:09;7.40;;;4.73;;
6723;SDS011;3399;52.530;13.304;2023-06-10T01:24:35;7.83;;;4.40;;
6723;SDS011;3399;52.530;13.304;2023-06-10T01:27:01;11.40;;;5.10;;
6723;SDS011;3399;52.530;13.304;2023-06-10T01:29:33;5.30;;;3.90;;
6723;SDS011;3399;52.530;13.304;2023-06-10T01:32:17;7.07;;;4.27;;
6723;SDS011;3399;52.530;13.304;2023-06-10T01:34:47;9.07;;;4.63;;
6723;SDS011;3399;52.530;13.304;2023-06-10T01:37:15;12.10;;;5.20;;
6723;SDS011;3399;52.530;13.304;2023-06-10T01:39:43;6.93;;;4.80;;
6723;SDS011;3399;52.530;13.304;2023-06-10T01:42:11;7.20;;;4.50;;
6723;SDS011;3399;52.530;13.304;2023-06-10T01:44:37;8.63;;;4.83;;
6723;SDS011;3399;52.530;13.304;2023-06-10T01:47:04;9.13;;;4.27;;
6723;SDS011;3399;52.530;13.304;2023-06-10T01:49:29;9.83;;;5.27;;
6723;SDS011;3399;52.530;13.304;2023-06-10T01:51:55;10.13;;;4.17;;
6723;SDS011;3399;52.530;13.304;2023-06-10T01:54:20;12.60;;;4.70;;
6723;SDS011;3399;52.530;13.304;2023-06-10T01:56:46;10.67;;;4.73;;
6723;SDS011;3399;52.530;13.304;2023-06-10T01:59:11;10.07;;;4.67;;
6723;SDS011;3399;52.530;13.304;2023-06-10T02:01:37;9.47;;;4.67;;
6723;SDS011;3399;52.530;13.304;2023-06-10T02:04:02;11.70;;;4.60;;
6723;SDS011;3399;52.530;13.304;2023-06-10T02:06:28;11.03;;;5.33;;
6723;SDS011;3399;52.530;13.304;2023-06-10T02:08:53;12.43;;;5.43;;
6723;SDS011;3399;52.530;13.304;2023-06-10T02:11:19;8.67;;;4.60;;
6723;SDS011;3399;52.530;13.304;2023-06-10T02:13:45;7.97;;;4.63;;
6723;SDS011;3399;52.530;13.304;2023-06-10T02:16:10;11.20;;;4.50;;
6723;SDS011;3399;52.530;13.304;2023-06-10T02:18:37;18.23;;;5.53;;
6723;SDS011;3399;52.530;13.304;2023-06-10T02:21:05;10.10;;;4.83;;
6723;SDS011;3399;52.530;13.304;2023-06-10T02:23:31;8.77;;;5.00;;
6723;SDS011;3399;52.530;13.304;2023-06-10T02:25:57;6.30;;;4.07;;
6723;SDS011;3399;52.530;13.304;2023-06-10T02:28:22;11.60;;;4.80;;
6723;SDS011;3399;52.530;13.304;2023-06-10T02:30:48;6.87;;;4.07;;
6723;SDS011;3399;52.530;13.304;2023-06-10T02:33:13;6.67;;;4.27;;
6723;SDS011;3399;52.530;13.304;2023-06-10T02:35:39;7.97;;;4.90;;
6723;SDS011;3399;52.530;13.304;2023-06-10T02:38:05;12.30;;;5.50;;
6723;SDS011;3399;52.530;13.304;2023-06-10T02:40:31;8.67;;;5.03;;
6723;SDS011;3399;52.530;13.304;2023-06-10T02:42:56;8.63;;;4.57;;
6723;SDS011;3399;52.530;13.304;2023-06-10T02:45:23;8.27;;;5.17;;
6723;SDS011;3399;52.530;13.304;2023-06-10T02:47:48;6.00;;;4.23;;
6723;SDS011;3399;52.530;13.304;2023-06-10T02:50:14;7.53;;;4.57;;
6723;SDS011;3399;52.530;13.304;2023-06-10T02:52:40;8.20;;;4.27;;
6723;SDS011;3399;52.530;13.304;2023-06-10T02:55:06;8.00;;;4.30;;
6723;SDS011;3399;52.530;13.304;2023-06-10T02:57:32;9.63;;;5.17;;
6723;SDS011;3399;52.530;13.304;2023-06-10T02:59:57;7.47;;;4.60;;
6723;SDS011;3399;52.530;13.304;2023-06-10T03:02:23;7.10;;;4.83;;
6723;SDS011;3399;52.530;13.304;2023-06-10T03:04:56;9.80;;;4.70;;
6723;SDS011;3399;52.530;13.304;2023-06-10T03:07:22;8.27;;;5.00;;
6723;SDS011;3399;52.530;13.304;2023-06-10T03:09:48;8.53;;;4.50;;
6723;SDS011;3399;52.530;13.304;2023-06-10T03:12:13;9.80;;;4.40;;
6723;SDS011;3399;52.530;13.304;2023-06-10T03:14:39;6.53;;;4.27;;
6723;SDS011;3399;52.530;13.304;2023-06-10T03:17:05;7.27;;;4.33;;
6723;SDS011;3399;52.530;13.304;2023-06-10T03:19:31;7.83;;;4.93;;
6723;SDS011;3399;52.530;13.304;2023-06-10T03:22:06;8.77;;;5.07;;
6723;SDS011;3399;52.530;13.304;2023-06-10T03:24:34;9.40;;;5.33;;
6723;SDS011;3399;52.530;13.304;2023-06-10T03:27:00;11.30;;;5.63;;
6723;SDS011;3399;52.530;13.304;2023-06-10T03:29:26;11.70;;;5.30;;
6723;SDS011;3399;52.530;13.304;2023-06-10T03:31:52;10.90;;;5.60;;
6723;SDS011;3399;52.530;13.304;2023-06-10T03:34:17;7.73;;;4.33;;
6723;SDS011;3399;52.530;13.304;2023-06-10T03:36:43;8.23;;;5.20;;
6723;SDS011;3399;52.530;13.304;2023-06-10T03:39:09;9.90;;;5.13;;
6723;SDS011;3399;52.530;13.304;2023-06-10T03:41:35;7.20;;;4.70;;
6723;SDS011;3399;52.530;13.304;2023-06-10T03:44:00;10.93;;;5.00;;
6723;SDS011;3399;52.530;13.304;2023-06-10T03:46:26;8.70;;;4.60;;
6723;SDS011;3399;52.530;13.304;2023-06-10T03:48:51;7.60;;;4.97;;
6723;SDS011;3399;52.530;13.304;2023-06-10T03:51:17;9.87;;;4.90;;
6723;SDS011;3399;52.530;13.304;2023-06-10T03:53:42;8.73;;;5.37;;
6723;SDS011;3399;52.530;13.304;2023-06-10T03:56:08;9.17;;;4.47;;
6723;SDS011;3399;52.530;13.304;2023-06-10T03:58:33;7.17;;;6.47;;
6723;SDS011;3399;52.530;13.304;2023-06-10T04:00:59;6.83;;;4.67;;
6723;SDS011;3399;52.530;13.304;2023-06-10T04:03:24;13.00;;;4.80;;
6723;SDS011;3399;52.530;13.304;2023-06-10T04:05:51;8.10;;;5.80;;
6723;SDS011;3399;52.530;13.304;2023-06-10T04:08:16;12.27;;;6.03;;
6723;SDS011;3399;52.530;13.304;2023-06-10T04:10:42;7.50;;;5.03;;
6723;SDS011;3399;52.530;13.304;2023-06-10T04:13:08;9.27;;;6.00;;
6723;SDS011;3399;52.530;13.304;2023-06-10T04:15:34;12.07;;;5.77;;
6723;SDS011;3399;52.530;13.304;2023-06-10T04:18:00;13.03;;;5.20;;
6723;SDS011;3399;52.530;13.304;2023-06-10T04:20:28;11.30;;;5.60;;
6723;SDS011;3399;52.530;13.304;2023-06-10T04:22:54;9.40;;;5.73;;
6723;SDS011;3399;52.530;13.304;2023-06-10T04:25:19;10.33;;;6.23;;
6723;SDS011;3399;52.530;13.304;2023-06-10T04:27:45;7.10;;;5.17;;
6723;SDS011;3399;52.530;13.304;2023-06-10T04:30:11;9.73;;;6.17;;
6723;SDS011;3399;52.530;13.304;2023-06-10T04:32:37;10.97;;;5.73;;
6723;SDS011;3399;52.530;13.304;2023-06-10T04:35:02;9.53;;;6.03;;
6723;SDS011;3399;52.530;13.304;2023-06-10T04:37:28;10.03;;;5.60;;
6723;SDS011;3399;52.530;13.304;2023-06-10T04:39:54;10.53;;;5.50;;
6723;SDS011;3399;52.530;13.304;2023-06-10T04:42:19;8.10;;;5.57;;
6723;SDS011;3399;52.530;13.304;2023-06-10T04:44:45;9.97;;;5.20;;
6723;SDS011;3399;52.530;13.304;2023-06-10T04:47:10;9.53;;;5.70;;
6723;SDS011;3399;52.530;13.304;2023-06-10T04:49:36;11.37;;;7.40;;
6723;SDS011;3399;52.530;13.304;2023-06-10T04:52:01;10.60;;;6.40;;
6723;SDS011;3399;52.530;13.304;2023-06-10T04:54:29;7.37;;;5.47;;
6723;SDS011;3399;52.530;13.304;2023-06-10T04:56:54;10.93;;;5.40;;
6723;SDS011;3399;52.530;13.304;2023-06-10T04:59:20;9.60;;;5.77;;
6723;SDS011;3399;52.530;13.304;2023-06-10T05:01:45;8.30;;;5.07;;
6723;SDS011;3399;52.530;13.304;2023-06-10T05:04:11;10.90;;;5.70;;
6723;SDS011;3399;52.530;13.304;2023-06-10T05:06:36;11.50;;;5.90;;
6723;SDS011;3399;52.530;13.304;2023-06-10T05:09:02;10.40;;;5.97;;
6723;SDS011;3399;52.530;13.304;2023-06-10T05:11:27;10.53;;;5.93;;
6723;SDS011;3399;52.530;13.304;2023-06-10T05:13:53;12.53;;;7.07;;
6723;SDS011;3399;52.530;13.304;2023-06-10T05:16:18;13.83;;;5.63;;
6723;SDS011;3399;52.530;13.304;2023-06-10T05:18:44;9.83;;;5.70;;
6723;SDS011;3399;52.530;13.304;2023-06-10T05:21:09;11.50;;;5.33;;
6723;SDS011;3399;52.530;13.304;2023-06-10T05:23:35;10.07;;;5.87;;
6723;SDS011;3399;52.530;13.304;2023-06-10T05:26:00;10.57;;;5.50;;
6723;SDS011;3399;52.530;13.304;2023-06-10T05:28:26;7.30;;;5.93;;
6723;SDS011;3399;52.530;13.304;2023-06-10T05:30:51;8.10;;;5.73;;
6723;SDS011;3399;52.530;13.304;2023-06-10T05:33:17;9.67;;;6.07;;
6723;SDS011;3399;52.530;13.304;2023-06-10T05:35:42;7.90;;;5.30;;
6723;SDS011;3399;52.530;13.304;2023-06-10T05:38:08;9.63;;;6.03;;
6723;SDS011;3399;52.530;13.304;2023-06-10T05:40:34;9.90;;;5.93;;
6723;SDS011;3399;52.530;13.304;2023-06-10T05:42:59;12.50;;;6.23;;
6723;SDS011;3399;52.530;13.304;2023-06-10T05:45:25;7.60;;;5.57;;
6723;SDS011;3399;52.530;13.304;2023-06-10T05:47:50;8.17;;;6.37;;
6723;SDS011;3399;52.530;13.304;2023-06-10T05:50:16;10.23;;;5.37;;
6723;SDS011;3399;52.530;13.304;2023-06-10T05:52:42;8.57;;;5.90;;
6723;SDS011;3399;52.530;13.304;2023-06-10T05:55:07;6.30;;;5.70;;
6723;SDS011;3399;52.530;13.304;2023-06-10T05:57:33;8.50;;;5.63;;
6723;SDS011;3399;52.530;13.304;2023-06-10T05:59:59;9.07;;;5.63;;
6723;SDS011;3399;52.530;13.304;2023-06-10T06:02:24;7.83;;;5.60;;
6723;SDS011;3399;52.530;13.304;2023-06-10T06:04:50;8.10;;;5.47;;
6723;SDS011;3399;52.530;13.304;2023-06-10T06:07:15;8.57;;;5.43;;
6723;SDS011;3399;52.530;13.304;2023-06-10T06:09:41;8.43;;;6.17;;
6723;SDS011;3399;52.530;13.304;2023-06-10T06:12:07;8.33;;;5.50;;
6723;SDS011;3399;52.530;13.304;2023-06-10T06:14:36;10.43;;;6.93;;
6723;SDS011;3399;52.530;13.304;2023-06-10T06:17:03;13.90;;;5.63;;
6723;SDS011;3399;52.530;13.304;2023-06-10T06:19:28;7.00;;;5.93;;
6723;SDS011;3399;52.530;13.304;2023-06-10T06:21:54;9.83;;;5.67;;
6723;SDS011;3399;52.530;13.304;2023-06-10T06:24:20;7.40;;;6.17;;
6723;SDS011;3399;52.530;13.304;2023-06-10T06:26:45;11.60;;;6.53;;
6723;SDS011;3399;52.530;13.304;2023-06-10T06:29:11;8.47;;;5.80;;
6723;SDS011;3399;52.530;13.304;2023-06-10T06:31:36;12.63;;;6.60;;
6723;SDS011;3399;52.530;13.304;2023-06-10T06:34:02;7.57;;;6.20;;
6723;SDS011;3399;52.530;13.304;2023-06-10T06:36:27;6.37;;;5.77;;
6723;SDS011;3399;52.530;13.304;2023-06-10T06:38:53;8.00;;;5.60;;
6723;SDS011;3399;52.530;13.304;2023-06-10T06:41:18;6.03;;;4.97;;
6723;SDS011;3399;52.530;13.304;2023-06-10T06:43:44;8.63;;;6.20;;
6723;SDS011;3399;52.530;13.304;2023-06-10T06:46:10;9.67;;;6.70;;
6723;SDS011;3399;52.530;13.304;2023-06-10T06:48:35;10.07;;;5.77;;
6723;SDS011;3399;52.530;13.304;2023-06-10T06:51:01;10.43;;;6.17;;
6723;SDS011;3399;52.530;13.304;2023-06-10T06:53:26;9.03;;;6.97;;
6723;SDS011;3399;52.530;13.304;2023-06-10T06:55:51;6.70;;;5.33;;
6723;SDS011;3399;52.530;13.304;2023-06-10T06:58:17;11.63;;;5.83;;
6723;SDS011;3399;52.530;13.304;2023-06-10T07:00:42;7.70;;;5.80;;
6723;SDS011;3399;52.530;13.304;2023-06-10T07:03:08;10.87;;;6.60;;
6723;SDS011;3399;52.530;13.304;2023-06-10T07:05:34;8.57;;;5.90;;
6723;SDS011;3399;52.530;13.304;2023-06-10T07:07:59;9.43;;;6.60;;
6723;SDS011;3399;52.530;13.304;2023-06-10T07:10:25;8.50;;;6.23;;
6723;SDS011;3399;52.530;13.304;2023-06-10T07:12:51;9.43;;;5.97;;
6723;SDS011;3399;52.530;13.304;2023-06-10T07:15:17;13.20;;;6.57;;
6723;SDS011;3399;52.530;13.304;2023-06-10T07:17:43;9.23;;;6.03;;
6723;SDS011;3399;52.530;13.304;2023-06-10T07:20:09;9.17;;;6.30;;
6723;SDS011;3399;52.530;13.304;2023-06-10T07:22:35;8.43;;;5.63;;
6723;SDS011;3399;52.530;13.304;2023-06-10T07:25:00;6.37;;;5.40;;
6723;SDS011;3399;52.530;13.304;2023-06-10T07:27:26;10.03;;;6.80;;
6723;SDS011;3399;52.530;13.304;2023-06-10T07:29:51;8.50;;;6.63;;
6723;SDS011;3399;52.530;13.304;2023-06-10T07:32:17;5.90;;;5.27;;
6723;SDS011;3399;52.530;13.304;2023-06-10T07:34:45;7.20;;;5.53;;
6723;SDS011;3399;52.530;13.304;2023-06-10T07:37:13;9.37;;;6.47;;
6723;SDS011;3399;52.530;13.304;2023-06-10T07:39:39;7.30;;;5.07;;
6723;SDS011;3399;52.530;13.304;2023-06-10T07:42:04;5.93;;;5.43;;
6723;SDS011;3399;52.530;13.304;2023-06-10T07:44:31;7.80;;;5.57;;
6723;SDS011;3399;52.530;13.304;2023-06-10T07:46:56;9.53;;;5.90;;
6723;SDS011;3399;52.530;13.304;2023-06-10T07:49:23;8.20;;;6.60;;
6723;SDS011;3399;52.530;13.304;2023-06-10T07:51:49;10.27;;;6.43;;
6723;SDS011;3399;52.530;13.304;2023-06-10T07:54:15;6.37;;;5.70;;
6723;SDS011;3399;52.530;13.304;2023-06-10T07:56:40;8.77;;;6.23;;
6723;SDS011;3399;52.530;13.304;2023-06-10T07:59:06;6.43;;;5.77;;
6723;SDS011;3399;52.530;13.304;2023-06-10T08:01:31;11.30;;;6.87;;
6723;SDS011;3399;52.530;13.304;2023-06-10T08:03:58;13.77;;;7.18;;
6723;SDS011;3399;52.530;13.304;2023-06-10T08:06:23;9.07;;;5.20;;
6723;SDS011;3399;52.530;13.304;2023-06-10T08:08:48;9.07;;;5.97;;
6723;SDS011;3399;52.530;13.304;2023-06-10T08:11:14;8.47;;;6.60;;
6723;SDS011;3399;52.530;13.304;2023-06-10T08:13:39;8.23;;;6.33;;
6723;SDS011;3399;52.530;13.304;2023-06-10T08:16:05;7.40;;;5.83;;
6723;SDS011;3399;52.530;13.304;2023-06-10T08:18:31;11.40;;;6.93;;
6723;SDS011;3399;52.530;13.304;2023-06-10T08:20:57;9.20;;;6.50;;
6723;SDS011;3399;52.530;13.304;2023-06-10T08:23:22;8.03;;;6.37;;
6723;SDS011;3399;52.530;13.304;2023-06-10T08:25:48;9.10;;;5.93;;
6723;SDS011;3399;52.530;13.304;2023-06-10T08:28:14;7.63;;;6.43;;
6723;SDS011;3399;52.530;13.304;2023-06-10T08:30:40;10.17;;;6.97;;
6723;SDS011;3399;52.530;13.304;2023-06-10T08:33:05;10.30;;;6.77;;
6723;SDS011;3399;52.530;13.304;2023-06-10T08:35:30;9.48;;;6.95;;
6723;SDS011;3399;52.530;13.304;2023-06-10T08:37:56;7.22;;;6.28;;
6723;SDS011;3399;52.530;13.304;2023-06-10T08:40:21;8.97;;;6.67;;
6723;SDS011;3399;52.530;13.304;2023-06-10T08:45:25;11.43;;;6.20;;
6723;SDS011;3399;52.530;13.304;2023-06-10T08:48:00;7.60;;;6.13;;
6723;SDS011;3399;52.530;13.304;2023-06-10T08:50:29;10.07;;;6.57;;
6723;SDS011;3399;52.530;13.304;2023-06-10T08:52:57;9.70;;;6.83;;
6723;SDS011;3399;52.530;13.304;2023-06-10T08:55:26;7.10;;;6.15;;
6723;SDS011;3399;52.530;13.304;2023-06-10T08:57:55;7.00;;;6.27;;
6723;SDS011;3399;52.530;13.304;2023-06-10T09:00:21;6.07;;;5.45;;
6723;SDS011;3399;52.530;13.304;2023-06-10T09:02:47;11.88;;;6.78;;
6723;SDS011;3399;52.530;13.304;2023-06-10T09:05:14;7.30;;;5.13;;
6723;SDS011;3399;52.530;13.304;2023-06-10T09:07:41;8.90;;;5.68;;
6723;SDS011;3399;52.530;13.304;2023-06-10T09:10:07;7.30;;;6.00;;
6723;SDS011;3399;52.530;13.304;2023-06-10T09:12:33;8.27;;;6.00;;
6723;SDS011;3399;52.530;13.304;2023-06-10T09:15:00;7.85;;;6.53;;
6723;SDS011;3399;52.530;13.304;2023-06-10T09:17:26;6.95;;;6.00;;
6723;SDS011;3399;52.530;13.304;2023-06-10T09:19:52;13.13;;;6.68;;
6723;SDS011;3399;52.530;13.304;2023-06-10T09:22:20;7.15;;;5.32;;
6723;SDS011;3399;52.530;13.304;2023-06-10T09:24:47;8.70;;;6.95;;
6723;SDS011;3399;52.530;13.304;2023-06-10T09:27:12;9.93;;;6.20;;
6723;SDS011;3399;52.530;13.304;2023-06-10T09:32:17;10.63;;;6.30;;
6723;SDS011;3399;52.530;13.304;2023-06-10T09:34:43;7.57;;;5.77;;
6723;SDS011;3399;52.530;13.304;2023-06-10T09:37:09;9.00;;;6.10;;
6723;SDS011;3399;52.530;13.304;2023-06-10T09:39:39;10.23;;;6.57;;
6723;SDS011;3399;52.530;13.304;2023-06-10T09:42:17;6.43;;;5.80;;
6723;SDS011;3399;52.530;13.304;2023-06-10T09:44:50;13.18;;;6.40;;
6723;SDS011;3399;52.530;13.304;2023-06-10T09:47:20;8.90;;;5.32;;
6723;SDS011;3399;52.530;13.304;2023-06-10T09:49:47;10.47;;;6.67;;
6723;SDS011;3399;52.530;13.304;2023-06-10T09:52:13;6.53;;;5.43;;
6723;SDS011;3399;52.530;13.304;2023-06-10T09:54:38;10.43;;;6.35;;
6723;SDS011;3399;52.530;13.304;2023-06-10T09:57:07;8.67;;;6.17;;
6723;SDS011;3399;52.530;13.304;2023-06-10T09:59:37;9.60;;;5.97;;
6723;SDS011;3399;52.530;13.304;2023-06-10T10:02:03;8.15;;;6.47;;
6723;SDS011;3399;52.530;13.304;2023-06-10T10:04:29;6.83;;;6.03;;
6723;SDS011;3399;52.530;13.304;2023-06-10T10:06:58;7.60;;;5.97;;
6723;SDS011;3399;52.530;13.304;2023-06-10T10:09:24;11.83;;;7.17;;
6723;SDS011;3399;52.530;13.304;2023-06-10T10:11:49;11.20;;;6.88;;
6723;SDS011;3399;52.530;13.304;2023-06-10T10:14:18;11.83;;;7.10;;
6723;SDS011;3399;52.530;13.304;2023-06-10T10:16:45;8.77;;;6.53;;
6723;SDS011;3399;52.530;13.304;2023-06-10T10:19:16;9.23;;;6.68;;
6723;SDS011;3399;52.530;13.304;2023-06-10T10:21:50;10.88;;;7.10;;
6723;SDS011;3399;52.530;13.304;2023-06-10T10:24:20;11.05;;;7.45;;
6723;SDS011;3399;52.530;13.304;2023-06-10T10:26:48;14.32;;;6.50;;
6723;SDS011;3399;52.530;13.304;2023-06-10T10:29:25;10.93;;;7.68;;
6723;SDS011;3399;52.530;13.304;2023-06-10T10:32:04;6.63;;;6.10;;
6723;SDS011;3399;52.530;13.304;2023-06-10T10:34:37;13.17;;;7.33;;
6723;SDS011;3399;52.530;13.304;2023-06-10T10:37:26;7.00;;;6.40;;
6723;SDS011;3399;52.530;13.304;2023-06-10T10:39:51;9.07;;;6.43;;
6723;SDS011;3399;52.530;13.304;2023-06-10T10:42:17;9.20;;;6.10;;
6723;SDS011;3399;52.530;13.304;2023-06-10T10:44:43;6.20;;;5.70;;
6723;SDS011;3399;52.530;13.304;2023-06-10T10:47:09;7.40;;;5.80;;
6723;SDS011;3399;52.530;13.304;2023-06-10T10:49:37;10.65;;;5.55;;
6723;SDS011;3399;52.530;13.304;2023-06-10T10:52:03;8.00;;;5.70;;
6723;SDS011;3399;52.530;13.304;2023-06-10T10:54:32;9.30;;;6.30;;
6723;SDS011;3399;52.530;13.304;2023-06-10T10:57:18;4.90;;;4.50;;
6723;SDS011;3399;52.530;13.304;2023-06-10T11:02:17;7.18;;;5.00;;
6723;SDS011;3399;52.530;13.304;2023-06-10T11:04:46;4.70;;;4.30;;
6723;SDS011;3399;52.530;13.304;2023-06-10T11:07:12;8.50;;;5.53;;
6723;SDS011;3399;52.530;13.304;2023-06-10T11:10:05;7.83;;;4.67;;
6723;SDS011;3399;52.530;13.304;2023-06-10T11:12:41;5.75;;;5.25;;
6723;SDS011;3399;52.530;13.304;2023-06-10T11:15:10;5.10;;;4.68;;
6723;SDS011;3399;52.530;13.304;2023-06-10T11:17:36;6.17;;;5.53;;
6723;SDS011;3399;52.530;13.304;2023-06-10T11:20:02;4.80;;;4.40;;
6723;SDS011;3399;52.530;13.304;2023-06-10T11:22:28;5.55;;;4.50;;
6723;SDS011;3399;52.530;13.304;2023-06-10T11:24:53;7.50;;;5.43;;
6723;SDS011;3399;52.530;13.304;2023-06-10T11:27:20;5.53;;;4.63;;
6723;SDS011;3399;52.530;13.304;2023-06-10T11:32:23;5.78;;;4.55;;
6723;SDS011;3399;52.530;13.304;2023-06-10T11:34:53;5.68;;;4.82;;
6723;SDS011;3399;52.530;13.304;2023-06-10T11:37:19;5.85;;;5.35;;
6723;SDS011;3399;52.530;13.304;2023-06-10T11:39:45;5.18;;;4.72;;
6723;SDS011;3399;52.530;13.304;2023-06-10T11:42:11;6.30;;;5.70;;
6723;SDS011;3399;52.530;13.304;2023-06-10T11:44:37;7.13;;;5.22;;
6723;SDS011;3399;52.530;13.304;2023-06-10T11:47:03;5.68;;;4.63;;
6723;SDS011;3399;52.530;13.304;2023-06-10T11:49:29;5.53;;;4.90;;
6723;SDS011;3399;52.530;13.304;2023-06-10T11:51:54;4.82;;;4.43;;
6723;SDS011;3399;52.530;13.304;2023-06-10T11:54:21;6.03;;;4.97;;
6723;SDS011;3399;52.530;13.304;2023-06-10T11:56:47;4.07;;;3.78;;
6723;SDS011;3399;52.530;13.304;2023-06-10T11:59:13;4.53;;;4.22;;
6723;SDS011;3399;52.530;13.304;2023-06-10T12:01:43;5.05;;;4.63;;
6723;SDS011;3399;52.530;13.304;2023-06-10T12:04:10;5.00;;;4.60;;
6723;SDS011;3399;52.530;13.304;2023-06-10T12:06:38;4.90;;;3.88;;
6723;SDS011;3399;52.530;13.304;2023-06-10T12:09:18;9.77;;;4.53;;
6723;SDS011;3399;52.530;13.304;2023-06-10T12:11:45;7.25;;;4.82;;
6723;SDS011;3399;52.530;13.304;2023-06-10T12:14:13;5.55;;;4.68;;
6723;SDS011;3399;52.530;13.304;2023-06-10T12:16:39;6.35;;;5.28;;
6723;SDS011;3399;52.530;13.304;2023-06-10T12:19:05;6.13;;;5.57;;
6723;SDS011;3399;52.530;13.304;2023-06-10T12:21:32;7.05;;;5.80;;
6723;SDS011;3399;52.530;13.304;2023-06-10T12:24:06;8.13;;;5.78;;
6723;SDS011;3399;52.530;13.304;2023-06-10T12:26:34;6.97;;;6.38;;
6723;SDS011;3399;52.530;13.304;2023-06-10T12:29:01;5.50;;;5.00;;
6723;SDS011;3399;52.530;13.304;2023-06-10T12:36:58;5.50;;;5.00;;
6723;SDS011;3399;52.530;13.304;2023-06-10T12:39:25;5.35;;;4.95;;
6723;SDS011;3399;52.530;13.304;2023-06-10T12:41:51;5.32;;;4.82;;
6723;SDS011;3399;52.530;13.304;2023-06-10T12:44:17;5.93;;;5.43;;
6723;SDS011;3399;52.530;13.304;2023-06-10T12:46:43;5.97;;;5.32;;
6723;SDS011;3399;52.530;13.304;2023-06-10T12:49:18;6.25;;;4.90;;
6723;SDS011;3399;52.530;13.304;2023-06-10T12:51:44;6.70;;;6.00;;
6723;SDS011;3399;52.530;13.304;2023-06-10T12:54:10;7.22;;;4.90;;
6723;SDS011;3399;52.530;13.304;2023-06-10T12:56:35;5.35;;;4.82;;
6723;SDS011;3399;52.530;13.304;2023-06-10T12:59:01;6.88;;;6.30;;
6723;SDS011;3399;52.530;13.304;2023-06-10T13:01:28;7.82;;;6.47;;
6723;SDS011;3399;52.530;13.304;2023-06-10T13:03:53;6.35;;;5.85;;
6723;SDS011;3399;52.530;13.304;2023-06-10T13:06:19;7.90;;;6.43;;
6723;SDS011;3399;52.530;13.304;2023-06-10T13:08:45;7.22;;;6.53;;
6723;SDS011;3399;52.530;13.304;2023-06-10T13:11:12;7.20;;;6.45;;
6723;SDS011;3399;52.530;13.304;2023-06-10T13:13:37;6.65;;;5.82;;
6723;SDS011;3399;52.530;13.304;2023-06-10T13:16:03;7.53;;;6.82;;
6723;SDS011;3399;52.530;13.304;2023-06-10T13:18:28;8.05;;;7.25;;
6723;SDS011;3399;52.530;13.304;2023-06-10T13:20:54;7.55;;;6.95;;
6723;SDS011;3399;52.530;13.304;2023-06-10T13:23:19;7.57;;;6.88;;
6723;SDS011;3399;52.530;13.304;2023-06-10T13:25:45;7.18;;;6.57;;
6723;SDS011;3399;52.530;13.304;2023-06-10T13:28:10;8.85;;;8.05;;
6723;SDS011;3399;52.530;13.304;2023-06-10T13:30:36;8.40;;;7.45;;
6723;SDS011;3399;52.530;13.304;2023-06-10T13:33:02;8.82;;;7.13;;
6723;SDS011;3399;52.530;13.304;2023-06-10T13:35:27;7.97;;;7.20;;
6723;SDS011;3399;52.530;13.304;2023-06-10T13:37:53;7.95;;;7.13;;
6723;SDS011;3399;52.530;13.304;2023-06-10T13:40:18;7.80;;;7.10;;
6723;SDS011;3399;52.530;13.304;2023-06-10T13:42:44;8.23;;;6.78;;
6723;SDS011;3399;52.530;13.304;2023-06-10T13:45:15;7.53;;;6.82;;
6723;SDS011;3399;52.530;13.304;2023-06-10T13:47:41;6.70;;;6.20;;
6723;SDS011;3399;52.530;13.304;2023-06-10T13:50:06;7.15;;;6.55;;
6723;SDS011;3399;52.530;13.304;2023-06-10T13:52:32;7.22;;;6.63;;
6723;SDS011;3399;52.530;13.304;2023-06-10T13:54:58;7.90;;;6.68;;
6723;SDS011;3399;52.530;13.304;2023-06-10T13:57:23;6.95;;;6.45;;
6723;SDS011;3399;52.530;13.304;2023-06-10T13:59:49;7.22;;;6.63;;
6723;SDS011;3399;52.530;13.304;2023-06-10T14:02:15;7.03;;;6.50;;
6723;SDS011;3399;52.530;13.304;2023-06-10T14:04:41;7.40;;;6.70;;
6723;SDS011;3399;52.530;13.304;2023-06-10T14:07:07;6.43;;;5.82;;
6723;SDS011;3399;52.530;13.304;2023-06-10T14:09:32;7.38;;;6.63;;
6723;SDS011;3399;52.530;13.304;2023-06-10T14:11:58;11.55;;;7.43;;
6723;SDS011;3399;52.530;13.304;2023-06-10T14:14:23;7.88;;;7.10;;
6723;SDS011;3399;52.530;13.304;2023-06-10T14:16:49;7.70;;;7.00;;
6723;SDS011;3399;52.530;13.304;2023-06-10T14:19:14;7.25;;;6.55;;
6723;SDS011;3399;52.530;13.304;2023-06-10T14:21:40;7.13;;;6.43;;
6723;SDS011;3399;52.530;13.304;2023-06-10T14:24:05;9.10;;;7.00;;
6723;SDS011;3399;52.530;13.304;2023-06-10T14:26:31;7.38;;;6.68;;
6723;SDS011;3399;52.530;13.304;2023-06-10T14:28:57;7.25;;;6.55;;
6723;SDS011;3399;52.530;13.304;2023-06-10T14:31:23;7.50;;;6.88;;
6723;SDS011;3399;52.530;13.304;2023-06-10T14:33:48;9.07;;;6.53;;
6723;SDS011;3399;52.530;13.304;2023-06-10T14:36:14;7.55;;;6.35;;
6723;SDS011;3399;52.530;13.304;2023-06-10T14:38:39;6.05;;;5.47;;
6723;SDS011;3399;52.530;13.304;2023-06-10T14:41:05;6.10;;;5.60;;
6723;SDS011;3399;52.530;13.304;2023-06-10T14:43:30;6.70;;;5.18;;
6723;SDS011;3399;52.530;13.304;2023-06-10T14:45:56;7.80;;;5.47;;
6723;SDS011;3399;52.530;13.304;2023-06-10T14:48:22;7.38;;;6.65;;
6723;SDS011;3399;52.530;13.304;2023-06-10T14:50:47;6.63;;;6.13;;
6723;SDS011;3399;52.530;13.304;2023-06-10T14:53:16;6.50;;;5.90;;
6723;SDS011;3399;52.530;13.304;2023-06-10T14:55:42;6.28;;;5.68;;
6723;SDS011;3399;52.530;13.304;2023-06-10T14:58:08;6.72;;;6.05;;
6723;SDS011;3399;52.530;13.304;2023-06-10T15:00:33;7.43;;;5.88;;
6723;SDS011;3399;52.530;13.304;2023-06-10T15:02:59;6.80;;;6.28;;
6723;SDS011;3399;52.530;13.304;2023-06-10T15:05:24;6.32;;;5.78;;
6723;SDS011;3399;52.530;13.304;2023-06-10T15:07:50;7.80;;;6.47;;
6723;SDS011;3399;52.530;13.304;2023-06-10T15:10:15;5.70;;;5.20;;
6723;SDS011;3399;52.530;13.304;2023-06-10T15:12:41;6.30;;;5.38;;